Almeria, Spain

12:25 AM CEST on August 21, 2014 (GMT +0200)
IALMERIA2 | Change Station
CLOSE
Current Station
Personal Weather Station
Location: Almeria, ALMERIA
Elevation: 50 ft
Nearby Weather Stations

Elev 50 ft 36.85 °N, 2.38 °W | Updated 25 minutes ago

Clear
Clear
76.6 °F
Feels Like 78 °F
N
2.0
Wind Variable Wind from WSW
Gusts 4.0 mph

Today
High -- | Low -- °F
--% Chance of Precip.
Yesterday
High -- | Low -- °F
Precip. -- in
7:31 AM 8:53 PM
Waning Crescent, 19% visible
Pressure 29.92 in
Visibility -9999.0 miles
Clouds
Heat Index 78 °F
Dew Point 64 °F
Humidity 64%
Rainfall 0.00 in
Snow Depth Not available.
UV 0.0 out of 12
Pollen Not available.
Air Quality Not available.
Flu Activity Not available.
METAR LEAM 202000Z VRB02KT CAVOK 26/21 Q1013

More Conditions Fewer Conditions

Pressure 29.92 in
Visibility -9999.0 miles
Clouds
Heat Index 78 °F
Dew Point 64 °F
Humidity 64%
Rainfall 0.00 in
Snow Depth Not available.
UV 0.0 out of 12
Pollen Not available.
Air Quality Not available.
Flu Activity Not available.
METAR LEAM 202000Z VRB02KT CAVOK 26/21 Q1013

More Conditions Fewer Conditions

10-Day Weather Forecast

Almanac

Astronomy

Aug. 21, 2014 Rise Set
Actual Time 7:31 AM CEST 8:53 PM CEST
Civil Twilight 7:04 AM CEST 9:20 PM CEST
Nautical Twilight 6:31 AM CEST 9:52 PM CEST
Astronomical Twilight 5:57 AM CEST 10:26 PM CEST
Moon 3:51 AM CEST (8/21) 6:09 PM CEST (8/21)
Length of Visible Light 14h 16m
Length of Day
13h 22m
Tomorrow will be 2m 9s shorter.
Waning Crescent, 19% of the Moon is Illuminated
Aug 20
Waning Crescent
Aug 25
New
Sep 2
First Quarter
Sep 8
Full
Sep 15
Last Quarter

Yesterday's Extremes

Country Highs Country Lows

Community

WunderPhotos

Upload Photos

1,745,779 photos uploaded!

Nearby

Snow Depth

Not available.

Earthquake Activity

City Distance Mag. Time & Date
No recent earthquake activity has been reported nearby.
Minimum magnitude displayed is 2.5.

Coastal Water Temperatures

Place Temperature
No Stations Reporting

Nearby Weather Stations